Rio Cuarto, Argentina

2:37 AM ART on July 29, 2016 (GMT -0300)
Area De Material | | Change Station

Elev 1381 ft 33.12 °S, 64.23 °W | Updated 37 minutes ago

Overcast
Overcast
45 °F
Feels Like 39 °F
N
12
Wind Variable Wind from North

Today
High -- | Low -- °F
--% Chance of Precip.
Yesterday
High -- | Low -- °F
Precip. -- in
Pressure 30.12 in
Visibility 6.2 miles
Clouds Overcast 2000 ft
Windchill 39 °F
Dew Point 41 °F
Humidity 87%
Rainfall 0.00 in
Snow Depth Not available.
8:09 AM 6:37 PM
Waning Crescent, 25% visible
METAR SAOC 290500Z 36010KT 9999 OVC020 07/05 Q1020
Pressure 30.12 in
Visibility 6.2 miles
Clouds Overcast 2000 ft
Windchill 39 °F
Dew Point 41 °F
Humidity 87%
Rainfall 0.00 in
Snow Depth Not available.
8:09 AM 6:37 PM
Waning Crescent, 25% visible
METAR SAOC 290500Z 36010KT 9999 OVC020 07/05 Q1020

10-Day Weather Forecast

No radar image for this location.
×

Almanac

Astronomy

Jul. 29, 2016 Rise Set
Actual Time
Civil Twilight
Nautical Twilight
Astronomical Twilight
Moon
Length of Visible Light
Length of Day
Tomorrow will be .
, % of the Moon is Illuminated

Today's Extremes

Country Highs Country Lows

Community

WunderPhotos

Upload Photos

1,928,299 photos uploaded!

WunderBlog® & News

Nearby

Air Quality

  Air Quality AQ Index Pollutant
Not available.

Snow Depth

Station Depth Elevation

Earthquake Activity

City Distance Mag. Time & Date
Minimum magnitude displayed is 2.5.

Coastal Water Temperatures

Place Temperature

Stations

Nearby Weather Stations

Station Location Temp. Windchill Dew Point Humidity Wind Precip. Elev Updated Type